createdAt,value
2023-05-06T00:00:45.808Z,12.39
2023-05-06T00:05:46.892Z,12.41
2023-05-06T00:15:34.585Z,12.42
2023-05-06T00:20:34.035Z,12.42
2023-05-06T00:25:33.830Z,12.41
2023-05-06T00:30:35.346Z,12.39
2023-05-06T00:35:32.066Z,12.41
2023-05-06T00:40:31.134Z,12.41
2023-05-06T00:45:31.508Z,12.4
2023-05-06T00:50:31.003Z,12.4
2023-05-06T00:55:28.349Z,12.4
2023-05-06T01:00:27.460Z,12.4
2023-05-06T01:05:29.203Z,12.39
2023-05-06T01:10:27.330Z,12.39
2023-05-06T01:15:26.056Z,12.39
2023-05-06T01:20:25.471Z,12.39
2023-05-06T01:25:24.495Z,12.38
2023-05-06T01:30:28.267Z,12.38
2023-05-06T01:35:22.063Z,12.38
2023-05-06T01:40:21.863Z,12.38
2023-05-06T01:45:20.945Z,12.38
2023-05-06T01:50:20.561Z,12.37
2023-05-06T01:55:20.116Z,12.37
2023-05-06T02:00:19.160Z,12.37
2023-05-06T02:02:06.304Z,12.35
2023-05-06T02:06:51.630Z,12.36
2023-05-06T02:13:28.169Z,12.35
2023-05-06T02:16:49.795Z,12.36
2023-05-06T02:21:49.078Z,12.33
2023-05-06T02:26:47.679Z,12.35
2023-05-06T02:31:48.665Z,12.35
2023-05-06T02:36:47.718Z,12.35
2023-05-06T02:41:49.341Z,12.34
2023-05-06T02:46:46.842Z,12.35
2023-05-06T02:51:49.097Z,12.34
2023-05-06T02:56:35.395Z,12.36
2023-05-06T03:01:29.429Z,12.33
2023-05-06T03:05:58.744Z,12.35
2023-05-06T03:10:57.247Z,12.35
2023-05-06T03:15:58.798Z,12.35
2023-05-06T03:20:56.017Z,12.35
2023-05-06T03:25:55.513Z,12.35
2023-05-06T03:30:55.337Z,12.32
2023-05-06T03:35:54.401Z,12.34
2023-05-06T03:40:52.082Z,12.34
2023-05-06T03:45:51.778Z,12.34
2023-05-06T03:50:51.838Z,12.34
2023-05-06T03:55:51.748Z,12.34
2023-05-06T04:00:48.150Z,12.32
2023-05-06T04:05:49.270Z,12.33
2023-05-06T04:10:48.350Z,12.33
2023-05-06T04:15:50.115Z,12.33
2023-05-06T04:20:46.833Z,12.33
2023-05-06T04:25:46.448Z,12.33
2023-05-06T04:30:45.680Z,12.32
2023-05-06T04:35:46.762Z,12.33
2023-05-06T04:40:45.855Z,12.34
2023-05-06T04:45:48.012Z,12.33
2023-05-06T04:50:36.590Z,12.35
2023-05-06T04:55:34.816Z,12.35
2023-05-06T05:00:34.432Z,12.35
2023-05-06T05:05:36.106Z,12.36
2023-05-06T05:10:32.210Z,12.37
2023-05-06T05:15:34.245Z,12.38
2023-05-06T05:20:33.726Z,12.39
2023-05-06T05:25:31.339Z,12.4
2023-05-06T05:30:28.397Z,12.41
2023-05-06T05:35:28.541Z,12.42
2023-05-06T05:40:28.309Z,12.44
2023-05-06T05:45:28.436Z,12.44
2023-05-06T05:50:27.605Z,12.45
2023-05-06T05:55:26.982Z,12.47
2023-05-06T06:00:26.789Z,12.49
2023-05-06T06:05:28.549Z,12.49
2023-05-06T06:10:24.549Z,12.49
2023-05-06T06:15:24.301Z,12.49
2023-05-06T06:20:23.994Z,12.49
2023-05-06T06:25:23.771Z,12.51
2023-05-06T06:30:22.895Z,12.53
2023-05-06T06:35:22.693Z,12.53
2023-05-06T06:40:23.237Z,12.55
2023-05-06T06:45:22.624Z,12.57
2023-05-06T06:50:23.867Z,12.59
2023-05-06T06:55:20.180Z,12.63
2023-05-06T07:00:20.037Z,12.67
2023-05-06T07:02:07.032Z,12.66
2023-05-06T07:06:43.424Z,12.71
2023-05-06T07:11:50.104Z,12.74
2023-05-06T07:16:51.532Z,12.79
2023-05-06T07:21:50.838Z,12.78
2023-05-06T07:26:48.852Z,12.86
2023-05-06T07:31:49.247Z,13.28
2023-05-06T07:36:48.482Z,13.32
2023-05-06T07:41:47.834Z,13.36
2023-05-06T07:46:48.857Z,13.29
2023-05-06T07:51:48.536Z,13.35
2023-05-06T07:56:49.357Z,13.2
2023-05-06T08:00:58.310Z,12.94
2023-05-06T08:05:57.549Z,13.42
2023-05-06T08:11:03.676Z,13.28
2023-05-06T08:15:55.641Z,13.4
2023-05-06T08:20:55.155Z,12.96
2023-05-06T08:25:55.481Z,12.91
2023-05-06T08:30:54.095Z,12.88
2023-05-06T08:35:53.658Z,12.93
2023-05-06T08:40:53.109Z,12.97
2023-05-06T08:45:52.528Z,13.5
2023-05-06T08:50:52.181Z,13.01
2023-05-06T08:55:53.283Z,13.21
2023-05-06T09:00:45.899Z,13.56
2023-05-06T09:05:46.046Z,13.51
2023-05-06T09:10:45.962Z,13.57
2023-05-06T09:15:34.500Z,13.58
2023-05-06T09:20:33.633Z,13.62
2023-05-06T09:25:36.415Z,13.34
2023-05-06T09:30:34.885Z,13.66
2023-05-06T09:35:31.828Z,13.42
2023-05-06T09:40:31.660Z,13.52
2023-05-06T09:45:33.439Z,13.45
2023-05-06T09:50:29.256Z,13.33
2023-05-06T09:55:29.328Z,13.76
2023-05-06T10:00:28.888Z,13.14
2023-05-06T10:05:31.366Z,13.14
2023-05-06T10:10:29.549Z,13.22
2023-05-06T10:15:34.573Z,13.59
2023-05-06T10:20:24.898Z,13.68
2023-05-06T10:25:26.355Z,13.34
2023-05-06T10:30:24.232Z,13.24
2023-05-06T10:35:27.096Z,13.5
2023-05-06T10:40:24.504Z,13.43
2023-05-06T10:45:23.124Z,13.43
2023-05-06T10:50:22.330Z,13.51
2023-05-06T10:55:25.651Z,13.5
2023-05-06T11:00:24.992Z,13.56
2023-05-06T11:02:11.920Z,13.68
2023-05-06T11:06:46.197Z,13.43
2023-05-06T11:11:47.128Z,13.6
2023-05-06T11:16:45.683Z,13.76
2023-05-06T11:21:45.942Z,13.22
2023-05-06T11:26:44.544Z,13.76
2023-05-06T11:31:45.296Z,13.73
2023-05-06T11:36:44.603Z,13.77
2023-05-06T11:41:46.076Z,13.27
2023-05-06T11:46:52.264Z,13.07
2023-05-06T11:51:51.942Z,13.43
2023-05-06T11:56:52.001Z,13.11
2023-05-06T12:00:53.271Z,13.77
2023-05-06T12:05:52.949Z,13.08
2023-05-06T12:10:53.044Z,13.07
2023-05-06T12:15:50.782Z,13.09
2023-05-06T12:20:51.411Z,13.14
2023-05-06T12:25:51.883Z,13.11
2023-05-06T12:30:52.919Z,13.61
2023-05-06T12:35:49.243Z,13.11
2023-05-06T12:40:52.469Z,13.18
2023-05-06T12:45:48.242Z,13.14
2023-05-06T12:50:48.449Z,13.15
2023-05-06T12:55:47.608Z,13.22
2023-05-06T13:00:49.431Z,13.2
2023-05-06T13:05:46.341Z,13.61
2023-05-06T13:10:35.886Z,13.29
2023-05-06T13:15:34.572Z,13.71
2023-05-06T13:20:47.946Z,13.55
2023-05-06T13:25:33.452Z,13.21
2023-05-06T13:30:33.758Z,13.59
2023-05-06T13:35:33.699Z,13.69
2023-05-06T13:40:35.210Z,13.42
2023-05-06T13:45:31.172Z,13.82
2023-05-06T13:50:31.381Z,13.69
2023-05-06T13:55:28.792Z,13.12
2023-05-06T14:00:39.214Z,13.58
2023-05-06T14:05:26.526Z,13.23
2023-05-06T14:10:25.369Z,13.16
2023-05-06T14:15:29.108Z,13.11
2023-05-06T14:20:28.503Z,13.16
2023-05-06T14:25:25.058Z,13.84
2023-05-06T14:30:32.006Z,13.26
2023-05-06T14:35:23.885Z,13.58
2023-05-06T14:40:22.876Z,13.64
2023-05-06T14:45:20.729Z,13.15
2023-05-06T14:50:20.105Z,13.18
2023-05-06T14:55:21.020Z,13.03
2023-05-06T15:00:19.837Z,12.99
2023-05-06T15:02:06.220Z,13.06
2023-05-06T15:06:51.879Z,13.09
2023-05-06T15:11:50.641Z,13.34
2023-05-06T15:16:53.813Z,13.02
2023-05-06T15:21:50.281Z,12.9
2023-05-06T15:27:01.997Z,12.82
2023-05-06T15:31:49.007Z,12.87
2023-05-06T15:36:47.042Z,12.81
2023-05-06T15:41:46.289Z,12.79
2023-05-06T15:46:46.014Z,12.79
2023-05-06T15:52:01.173Z,12.83
2023-05-06T15:57:09.726Z,12.83
2023-05-06T16:00:57.983Z,12.82
2023-05-06T16:05:58.988Z,12.88
2023-05-06T16:10:55.356Z,12.97
2023-05-06T16:15:55.119Z,12.93
2023-05-06T16:20:55.657Z,12.84
2023-05-06T16:25:54.324Z,12.86
2023-05-06T16:30:53.949Z,12.74
2023-05-06T16:35:53.528Z,12.81
2023-05-06T16:40:53.916Z,12.81
2023-05-06T16:45:52.788Z,12.77
2023-05-06T16:50:54.245Z,12.76
2023-05-06T16:55:50.599Z,12.75
2023-05-06T17:00:46.588Z,12.69
2023-05-06T17:05:46.855Z,12.66
2023-05-06T17:10:45.800Z,12.64
2023-05-06T17:15:45.622Z,12.61
2023-05-06T17:20:54.740Z,12.61
2023-05-06T17:25:36.629Z,12.6
2023-05-06T17:30:33.083Z,12.6
2023-05-06T17:35:33.577Z,12.59
2023-05-06T17:40:32.086Z,12.59
2023-05-06T17:45:31.260Z,12.58
2023-05-06T17:50:30.616Z,12.58
2023-05-06T17:55:43.604Z,12.57
2023-05-06T18:00:31.199Z,12.56
2023-05-06T18:05:32.104Z,12.56
2023-05-06T18:10:27.023Z,12.56
2023-05-06T18:15:27.110Z,12.55
2023-05-06T18:20:26.525Z,12.55
2023-05-06T18:25:41.830Z,12.55
2023-05-06T18:30:23.235Z,12.55
2023-05-06T18:35:23.351Z,12.54
2023-05-06T18:40:22.241Z,12.54
2023-05-06T18:45:22.406Z,12.54
2023-05-06T18:50:21.041Z,12.54
2023-05-06T18:55:21.133Z,12.54
2023-05-06T19:00:21.139Z,12.54
2023-05-06T19:05:20.586Z,12.53
2023-05-06T19:10:17.847Z,12.53
2023-05-06T19:15:17.740Z,12.53
2023-05-06T19:20:17.844Z,12.53
2023-05-06T19:25:17.511Z,12.53
2023-05-06T19:30:16.634Z,12.53
2023-05-06T19:35:16.197Z,12.52
2023-05-06T19:40:16.136Z,12.52
2023-05-06T19:45:17.452Z,12.52
2023-05-06T19:50:16.664Z,12.52
2023-05-06T19:55:14.603Z,12.52
2023-05-06T20:00:12.965Z,12.52
2023-05-06T20:01:59.670Z,12.5
2023-05-06T20:06:36.237Z,12.51
2023-05-06T20:11:31.698Z,12.5
2023-05-06T20:16:31.944Z,12.51
2023-05-06T20:21:30.922Z,12.51
2023-05-06T20:26:30.869Z,12.51
2023-05-06T20:31:28.765Z,12.5
2023-05-06T20:36:27.812Z,12.51
2023-05-06T20:41:27.842Z,12.48
2023-05-06T20:46:29.967Z,12.5
2023-05-06T20:51:25.794Z,12.5
2023-05-06T20:56:27.072Z,12.5
2023-05-06T21:00:56.978Z,12.48
2023-05-06T21:05:56.719Z,12.49
2023-05-06T21:10:54.404Z,12.49
2023-05-06T21:15:53.989Z,12.49
2023-05-06T21:20:52.816Z,12.49
2023-05-06T21:25:52.537Z,12.48
2023-05-06T21:30:52.130Z,12.46
2023-05-06T21:35:50.853Z,12.48
2023-05-06T21:40:51.050Z,12.48
2023-05-06T21:45:50.584Z,12.48
2023-05-06T21:50:51.656Z,12.48
2023-05-06T22:00:45.863Z,12.46
2023-05-06T22:05:45.256Z,12.47
2023-05-06T22:10:34.166Z,12.48
2023-05-06T22:15:33.368Z,12.48
2023-05-06T22:20:34.572Z,12.48
2023-05-06T22:25:34.266Z,12.47
2023-05-06T22:30:30.761Z,12.47
2023-05-06T22:35:31.008Z,12.47
2023-05-06T22:40:30.828Z,12.47
2023-05-06T22:45:30.739Z,12.47
2023-05-06T22:50:29.720Z,12.47
2023-05-06T22:55:29.748Z,12.46
2023-05-06T23:00:29.530Z,12.46
2023-05-06T23:05:29.669Z,12.46
2023-05-06T23:10:30.213Z,12.46
2023-05-06T23:15:26.795Z,12.46
2023-05-06T23:20:27.865Z,12.46
2023-05-06T23:25:25.450Z,12.46
2023-05-06T23:30:24.994Z,12.46
2023-05-06T23:35:22.105Z,12.45
2023-05-06T23:40:21.946Z,12.45
2023-05-06T23:45:22.355Z,12.45
2023-05-06T23:50:21.469Z,12.45
2023-05-06T23:55:20.935Z,12.45
